Moscow, North Dakota
Current Conditions -  °F | °C
As of 9:55 PM on Thursday 18 Dec 2014 (Local Time) from KD55 Reporting Station
Haze Haze  
Wind Chill:   Ceiling: 200
Heat Index: 19°   Visibility: 1.7mi
Dew Point: 18°   Wind: 12mph
Humidity: 93%   Direction: 170°S
Pressure: 30.04"   Gusts: NA
Location:  48.6307°N, 98.5917°W
Report Text: KD55 190355Z AUTO 17010KT 1 3/4SM BR OVC002 M07/M08 A3004 RMK AO2
Loading
Personal Weather Stations






























Interactive Weather Map New forecast layout! Learn more

10-Day Weather Forecast

Advertisements
Track Severe Weather on mobile